sensor_id;sensor_type;location;lat;lon;timestamp;pressure;altitude;pressure_sealevel;temperature;humidity
37848;BME280;23688;33.130;-117.188;2022-09-03T00:01:19;98708.03;;;31.10;44.54
37848;BME280;23688;33.130;-117.188;2022-09-03T00:04:02;98679.50;;;31.09;44.80
37848;BME280;23688;33.130;-117.188;2022-09-03T00:06:39;98664.03;;;31.14;45.92
37848;BME280;23688;33.130;-117.188;2022-09-03T00:09:33;98684.44;;;31.17;46.67
37848;BME280;23688;33.130;-117.188;2022-09-03T00:15:09;98695.25;;;30.82;48.68
37848;BME280;23688;33.130;-117.188;2022-09-03T00:17:41;98700.94;;;30.76;48.88
37848;BME280;23688;33.130;-117.188;2022-09-03T00:22:50;98704.22;;;30.99;48.12
37848;BME280;23688;33.130;-117.188;2022-09-03T00:25:24;98700.94;;;30.93;47.62
37848;BME280;23688;33.130;-117.188;2022-09-03T00:27:54;98701.63;;;30.97;47.75
37848;BME280;23688;33.130;-117.188;2022-09-03T00:30:23;98706.66;;;31.03;47.21
37848;BME280;23688;33.130;-117.188;2022-09-03T00:33:23;98707.44;;;30.55;47.46
37848;BME280;23688;33.130;-117.188;2022-09-03T00:38:32;98700.34;;;30.19;49.35
37848;BME280;23688;33.130;-117.188;2022-09-03T00:42:04;98711.56;;;29.92;50.38
37848;BME280;23688;33.130;-117.188;2022-09-03T00:47:19;98720.66;;;29.71;50.92
37848;BME280;23688;33.130;-117.188;2022-09-03T00:49:57;98714.34;;;29.72;52.11
37848;BME280;23688;33.130;-117.188;2022-09-03T00:55:25;98737.81;;;29.65;52.18
37848;BME280;23688;33.130;-117.188;2022-09-03T01:00:43;98736.16;;;29.62;51.06
37848;BME280;23688;33.130;-117.188;2022-09-03T01:03:16;98749.00;;;29.37;51.58
37848;BME280;23688;33.130;-117.188;2022-09-03T01:05:57;98754.19;;;29.40;51.75
37848;BME280;23688;33.130;-117.188;2022-09-03T01:09:00;98747.81;;;29.23;53.37
37848;BME280;23688;33.130;-117.188;2022-09-03T01:11:59;98769.50;;;28.97;54.47
37848;BME280;23688;33.130;-117.188;2022-09-03T01:20:08;98763.34;;;28.55;57.26
37848;BME280;23688;33.130;-117.188;2022-09-03T01:28:49;98758.78;;;28.37;58.78
37848;BME280;23688;33.130;-117.188;2022-09-03T01:31:49;98762.81;;;28.47;58.33
37848;BME280;23688;33.130;-117.188;2022-09-03T01:37:19;98769.16;;;28.23;57.02
37848;BME280;23688;33.130;-117.188;2022-09-03T01:40:10;98782.38;;;28.26;56.97
37848;BME280;23688;33.130;-117.188;2022-09-03T01:45:47;98783.28;;;28.04;57.15
37848;BME280;23688;33.130;-117.188;2022-09-03T01:48:32;98781.00;;;27.95;57.66
37848;BME280;23688;33.130;-117.188;2022-09-03T01:56:52;98783.63;;;27.27;62.44
37848;BME280;23688;33.130;-117.188;2022-09-03T01:59:36;98782.19;;;27.19;62.66
37848;BME280;23688;33.130;-117.188;2022-09-03T02:02:27;98792.06;;;27.15;63.08
37848;BME280;23688;33.130;-117.188;2022-09-03T02:05:06;98765.53;;;27.12;62.89
37848;BME280;23688;33.130;-117.188;2022-09-03T02:07:50;98787.84;;;27.09;63.39
37848;BME280;23688;33.130;-117.188;2022-09-03T02:10:24;98785.78;;;26.93;64.11
37848;BME280;23688;33.130;-117.188;2022-09-03T02:13:07;98789.00;;;26.77;64.58
37848;BME280;23688;33.130;-117.188;2022-09-03T02:15:38;98781.25;;;26.71;65.03
37848;BME280;23688;33.130;-117.188;2022-09-03T02:18:09;98783.47;;;26.83;64.90
37848;BME280;23688;33.130;-117.188;2022-09-03T02:20:40;98792.38;;;26.57;65.96
37848;BME280;23688;33.130;-117.188;2022-09-03T02:23:07;98789.72;;;26.57;65.79
37848;BME280;23688;33.130;-117.188;2022-09-03T02:25:46;98797.22;;;26.71;65.67
37848;BME280;23688;33.130;-117.188;2022-09-03T02:28:13;98784.59;;;26.76;65.32
37848;BME280;23688;33.130;-117.188;2022-09-03T02:30:41;98801.28;;;26.81;64.77
37848;BME280;23688;33.130;-117.188;2022-09-03T02:33:08;98809.78;;;26.93;64.28
37848;BME280;23688;33.130;-117.188;2022-09-03T02:35:35;98793.72;;;26.94;62.26
37848;BME280;23688;33.130;-117.188;2022-09-03T02:38:15;98815.72;;;26.99;62.36
37848;BME280;23688;33.130;-117.188;2022-09-03T02:40:42;98791.81;;;26.98;61.65
37848;BME280;23688;33.130;-117.188;2022-09-03T02:43:15;98806.66;;;27.05;62.09
37848;BME280;23688;33.130;-117.188;2022-09-03T02:45:49;98798.38;;;27.13;61.82
37848;BME280;23688;33.130;-117.188;2022-09-03T02:48:21;98789.44;;;26.90;62.83
37848;BME280;23688;33.130;-117.188;2022-09-03T02:50:48;98794.59;;;26.95;63.21
37848;BME280;23688;33.130;-117.188;2022-09-03T02:53:14;98800.69;;;26.98;63.43
37848;BME280;23688;33.130;-117.188;2022-09-03T02:55:41;98793.84;;;26.91;63.50
37848;BME280;23688;33.130;-117.188;2022-09-03T02:58:07;98802.28;;;26.79;64.21
37848;BME280;23688;33.130;-117.188;2022-09-03T03:00:35;98809.00;;;26.89;64.27
37848;BME280;23688;33.130;-117.188;2022-09-03T03:03:05;98817.94;;;26.88;65.08
37848;BME280;23688;33.130;-117.188;2022-09-03T03:05:47;98822.56;;;26.83;65.20
37848;BME280;23688;33.130;-117.188;2022-09-03T03:08:16;98825.13;;;26.84;64.81
37848;BME280;23688;33.130;-117.188;2022-09-03T03:10:50;98848.09;;;26.63;67.33
37848;BME280;23688;33.130;-117.188;2022-09-03T03:13:17;98821.91;;;26.50;67.23
37848;BME280;23688;33.130;-117.188;2022-09-03T03:15:45;98851.94;;;26.80;66.65
37848;BME280;23688;33.130;-117.188;2022-09-03T03:18:12;98833.16;;;26.58;68.42
37848;BME280;23688;33.130;-117.188;2022-09-03T03:20:40;98848.16;;;26.60;68.72
37848;BME280;23688;33.130;-117.188;2022-09-03T03:23:08;98858.94;;;26.82;67.69
37848;BME280;23688;33.130;-117.188;2022-09-03T03:25:37;98866.63;;;26.92;67.33
37848;BME280;23688;33.130;-117.188;2022-09-03T03:28:04;98854.97;;;26.94;67.28
37848;BME280;23688;33.130;-117.188;2022-09-03T03:30:32;98872.59;;;26.98;67.11
37848;BME280;23688;33.130;-117.188;2022-09-03T03:32:59;98873.69;;;26.93;67.37
37848;BME280;23688;33.130;-117.188;2022-09-03T03:35:26;98885.94;;;26.98;67.62
37848;BME280;23688;33.130;-117.188;2022-09-03T03:37:52;98880.91;;;26.89;67.61
37848;BME280;23688;33.130;-117.188;2022-09-03T03:40:18;98902.72;;;26.75;68.66
37848;BME280;23688;33.130;-117.188;2022-09-03T03:42:45;98883.94;;;26.52;69.67
37848;BME280;23688;33.130;-117.188;2022-09-03T03:45:11;98910.50;;;26.55;70.51
37848;BME280;23688;33.130;-117.188;2022-09-03T03:47:37;98900.81;;;26.51;70.49
37848;BME280;23688;33.130;-117.188;2022-09-03T03:50:04;98916.81;;;26.22;72.06
37848;BME280;23688;33.130;-117.188;2022-09-03T03:52:31;98887.81;;;25.85;73.41
37848;BME280;23688;33.130;-117.188;2022-09-03T03:54:57;98918.47;;;25.98;73.33
37848;BME280;23688;33.130;-117.188;2022-09-03T03:57:23;98924.06;;;25.89;73.63
37848;BME280;23688;33.130;-117.188;2022-09-03T03:59:50;98933.94;;;25.86;74.17
37848;BME280;23688;33.130;-117.188;2022-09-03T04:02:16;98940.00;;;25.89;74.47
37848;BME280;23688;33.130;-117.188;2022-09-03T04:04:43;98927.66;;;25.88;73.72
37848;BME280;23688;33.130;-117.188;2022-09-03T04:07:10;98925.44;;;26.02;72.93
37848;BME280;23688;33.130;-117.188;2022-09-03T04:09:36;98936.44;;;26.20;73.11
37848;BME280;23688;33.130;-117.188;2022-09-03T04:12:05;98956.41;;;26.33;72.91
37848;BME280;23688;33.130;-117.188;2022-09-03T04:14:34;98955.22;;;26.43;72.10
37848;BME280;23688;33.130;-117.188;2022-09-03T04:17:01;98956.00;;;26.45;71.77
37848;BME280;23688;33.130;-117.188;2022-09-03T04:19:30;98946.91;;;26.54;71.46
37848;BME280;23688;33.130;-117.188;2022-09-03T04:21:57;98954.84;;;26.56;71.25
37848;BME280;23688;33.130;-117.188;2022-09-03T04:24:24;98955.03;;;26.48;71.47
37848;BME280;23688;33.130;-117.188;2022-09-03T04:26:52;98962.97;;;26.50;71.85
37848;BME280;23688;33.130;-117.188;2022-09-03T04:29:21;98955.22;;;26.43;71.83
37848;BME280;23688;33.130;-117.188;2022-09-03T04:31:47;98975.31;;;26.54;72.10
37848;BME280;23688;33.130;-117.188;2022-09-03T04:34:32;98956.25;;;26.38;72.53
37848;BME280;23688;33.130;-117.188;2022-09-03T04:36:58;98964.72;;;26.51;72.61
37848;BME280;23688;33.130;-117.188;2022-09-03T04:39:25;98966.38;;;26.56;72.14
37848;BME280;23688;33.130;-117.188;2022-09-03T04:41:51;98972.56;;;26.57;71.81
37848;BME280;23688;33.130;-117.188;2022-09-03T04:44:18;98980.53;;;26.57;71.93
37848;BME280;23688;33.130;-117.188;2022-09-03T04:46:44;98964.78;;;26.49;72.14
37848;BME280;23688;33.130;-117.188;2022-09-03T04:49:13;98971.72;;;26.55;71.89
37848;BME280;23688;33.130;-117.188;2022-09-03T04:51:40;98968.44;;;26.45;71.84
37848;BME280;23688;33.130;-117.188;2022-09-03T04:54:08;98965.06;;;26.40;71.62
37848;BME280;23688;33.130;-117.188;2022-09-03T04:56:35;98973.09;;;26.38;71.75
37848;BME280;23688;33.130;-117.188;2022-09-03T04:59:04;98971.34;;;26.37;71.90
37848;BME280;23688;33.130;-117.188;2022-09-03T05:01:33;98971.22;;;26.42;71.96
37848;BME280;23688;33.130;-117.188;2022-09-03T05:04:00;98966.75;;;26.42;72.03
37848;BME280;23688;33.130;-117.188;2022-09-03T05:06:28;98953.66;;;26.36;71.50
37848;BME280;23688;33.130;-117.188;2022-09-03T05:08:56;98964.06;;;26.44;71.72
37848;BME280;23688;33.130;-117.188;2022-09-03T05:11:24;98966.28;;;26.30;71.96
37848;BME280;23688;33.130;-117.188;2022-09-03T05:13:53;98953.16;;;26.23;71.21
37848;BME280;23688;33.130;-117.188;2022-09-03T05:16:20;98982.84;;;26.39;70.81
37848;BME280;23688;33.130;-117.188;2022-09-03T05:18:47;98983.66;;;26.41;71.07
37848;BME280;23688;33.130;-117.188;2022-09-03T05:21:15;98990.69;;;26.44;70.96
37848;BME280;23688;33.130;-117.188;2022-09-03T05:23:44;98990.63;;;26.45;70.86
37848;BME280;23688;33.130;-117.188;2022-09-03T05:26:13;99009.22;;;26.47;71.12
37848;BME280;23688;33.130;-117.188;2022-09-03T05:28:41;98996.97;;;26.41;70.84
37848;BME280;23688;33.130;-117.188;2022-09-03T05:31:12;99014.56;;;26.45;70.75
37848;BME280;23688;33.130;-117.188;2022-09-03T05:33:43;99006.72;;;26.41;70.81
37848;BME280;23688;33.130;-117.188;2022-09-03T05:36:13;99020.81;;;26.44;70.03
37848;BME280;23688;33.130;-117.188;2022-09-03T05:38:40;99004.88;;;26.43;70.27
37848;BME280;23688;33.130;-117.188;2022-09-03T05:41:09;99013.69;;;26.45;70.05
37848;BME280;23688;33.130;-117.188;2022-09-03T05:43:36;99028.72;;;26.47;70.24
37848;BME280;23688;33.130;-117.188;2022-09-03T05:46:08;99025.19;;;26.47;70.07
37848;BME280;23688;33.130;-117.188;2022-09-03T05:48:37;99022.41;;;26.50;70.14
37848;BME280;23688;33.130;-117.188;2022-09-03T05:51:09;99018.78;;;26.53;70.17
37848;BME280;23688;33.130;-117.188;2022-09-03T05:53:37;98991.66;;;26.41;70.16
37848;BME280;23688;33.130;-117.188;2022-09-03T05:56:15;99008.28;;;26.48;70.30
37848;BME280;23688;33.130;-117.188;2022-09-03T05:58:47;98997.63;;;26.48;69.87
37848;BME280;23688;33.130;-117.188;2022-09-03T06:01:33;98999.44;;;26.47;70.01
37848;BME280;23688;33.130;-117.188;2022-09-03T06:04:03;98988.06;;;26.42;69.96
37848;BME280;23688;33.130;-117.188;2022-09-03T06:06:31;99001.97;;;26.51;70.03
37848;BME280;23688;33.130;-117.188;2022-09-03T06:09:00;98995.75;;;26.52;69.76
37848;BME280;23688;33.130;-117.188;2022-09-03T06:11:27;99001.00;;;26.55;69.45
37848;BME280;23688;33.130;-117.188;2022-09-03T06:13:55;98981.72;;;26.46;69.79
37848;BME280;23688;33.130;-117.188;2022-09-03T06:16:23;98990.44;;;26.52;68.89
37848;BME280;23688;33.130;-117.188;2022-09-03T06:18:50;98988.63;;;26.54;68.74
37848;BME280;23688;33.130;-117.188;2022-09-03T06:21:17;98983.34;;;26.51;68.57
37848;BME280;23688;33.130;-117.188;2022-09-03T06:23:49;98958.88;;;26.39;69.07
37848;BME280;23688;33.130;-117.188;2022-09-03T06:26:17;98960.34;;;26.48;68.80
37848;BME280;23688;33.130;-117.188;2022-09-03T06:28:45;98963.09;;;26.46;68.78
37848;BME280;23688;33.130;-117.188;2022-09-03T06:31:17;98965.03;;;26.41;68.73
37848;BME280;23688;33.130;-117.188;2022-09-03T06:33:45;98984.38;;;26.46;68.83
37848;BME280;23688;33.130;-117.188;2022-09-03T06:36:14;98999.38;;;26.49;68.69
37848;BME280;23688;33.130;-117.188;2022-09-03T06:38:41;98997.56;;;26.51;68.56
37848;BME280;23688;33.130;-117.188;2022-09-03T06:41:14;99017.94;;;26.51;68.67
37848;BME280;23688;33.130;-117.188;2022-09-03T06:43:43;99007.38;;;26.49;68.76
37848;BME280;23688;33.130;-117.188;2022-09-03T06:46:13;98994.97;;;26.48;68.84
37848;BME280;23688;33.130;-117.188;2022-09-03T06:48:40;98996.16;;;26.39;68.63
37848;BME280;23688;33.130;-117.188;2022-09-03T06:51:34;98988.09;;;26.41;68.68
37848;BME280;23688;33.130;-117.188;2022-09-03T06:54:07;98990.00;;;26.37;68.61
37848;BME280;23688;33.130;-117.188;2022-09-03T06:56:35;98991.06;;;26.32;69.04
37848;BME280;23688;33.130;-117.188;2022-09-03T06:59:09;98977.94;;;26.25;69.21
37848;BME280;23688;33.130;-117.188;2022-09-03T07:01:36;98970.75;;;26.29;68.78
37848;BME280;23688;33.130;-117.188;2022-09-03T07:04:06;98965.88;;;26.14;69.14
37848;BME280;23688;33.130;-117.188;2022-09-03T07:06:36;98972.47;;;26.02;69.54
37848;BME280;23688;33.130;-117.188;2022-09-03T07:09:07;98951.19;;;25.71;71.42
37848;BME280;23688;33.130;-117.188;2022-09-03T07:11:35;98962.66;;;25.71;72.42
37848;BME280;23688;33.130;-117.188;2022-09-03T07:14:04;98965.78;;;25.87;71.42
37848;BME280;23688;33.130;-117.188;2022-09-03T07:16:35;98959.34;;;25.94;71.21
37848;BME280;23688;33.130;-117.188;2022-09-03T07:19:03;98971.53;;;26.03;70.90
37848;BME280;23688;33.130;-117.188;2022-09-03T07:21:31;98970.53;;;26.07;70.25
37848;BME280;23688;33.130;-117.188;2022-09-03T07:24:08;98965.34;;;26.02;69.99
37848;BME280;23688;33.130;-117.188;2022-09-03T07:26:37;98962.69;;;26.02;69.86
37848;BME280;23688;33.130;-117.188;2022-09-03T07:29:05;98973.50;;;25.96;69.35
37848;BME280;23688;33.130;-117.188;2022-09-03T07:31:40;98998.88;;;26.07;69.00
37848;BME280;23688;33.130;-117.188;2022-09-03T07:34:09;99004.16;;;26.10;68.54
37848;BME280;23688;33.130;-117.188;2022-09-03T07:36:38;98997.94;;;26.09;68.50
37848;BME280;23688;33.130;-117.188;2022-09-03T07:39:05;98967.75;;;25.79;69.07
37848;BME280;23688;33.130;-117.188;2022-09-03T07:41:32;98980.56;;;25.97;68.62
37848;BME280;23688;33.130;-117.188;2022-09-03T07:43:59;98990.84;;;26.10;68.38
37848;BME280;23688;33.130;-117.188;2022-09-03T07:46:32;98997.94;;;26.09;68.53
37848;BME280;23688;33.130;-117.188;2022-09-03T07:49:00;98992.56;;;26.11;68.32
37848;BME280;23688;33.130;-117.188;2022-09-03T07:51:32;98993.44;;;26.11;68.25
37848;BME280;23688;33.130;-117.188;2022-09-03T07:54:01;98993.41;;;26.13;68.43
37848;BME280;23688;33.130;-117.188;2022-09-03T07:56:28;98991.50;;;26.16;68.68
37848;BME280;23688;33.130;-117.188;2022-09-03T07:58:58;98987.88;;;26.19;68.75
37848;BME280;23688;33.130;-117.188;2022-09-03T08:01:26;98985.38;;;26.14;68.94
37848;BME280;23688;33.130;-117.188;2022-09-03T08:03:55;99001.13;;;26.22;68.63
37848;BME280;23688;33.130;-117.188;2022-09-03T08:06:24;98987.25;;;26.11;68.81
37848;BME280;23688;33.130;-117.188;2022-09-03T08:08:55;98969.72;;;26.03;68.72
37848;BME280;23688;33.130;-117.188;2022-09-03T08:11:24;98956.75;;;25.93;68.35
37848;BME280;23688;33.130;-117.188;2022-09-03T08:14:04;98969.94;;;25.97;68.41
37848;BME280;23688;33.130;-117.188;2022-09-03T08:16:37;98972.63;;;25.96;68.30
37848;BME280;23688;33.130;-117.188;2022-09-03T08:19:04;98957.59;;;25.95;67.99
37848;BME280;23688;33.130;-117.188;2022-09-03T08:21:31;98945.16;;;25.95;68.63
37848;BME280;23688;33.130;-117.188;2022-09-03T08:23:57;98934.75;;;25.88;69.11
37848;BME280;23688;33.130;-117.188;2022-09-03T08:26:29;98944.19;;;25.98;69.12
37848;BME280;23688;33.130;-117.188;2022-09-03T08:29:00;98943.34;;;25.97;69.06
37848;BME280;23688;33.130;-117.188;2022-09-03T08:31:27;98936.16;;;25.99;68.28
37848;BME280;23688;33.130;-117.188;2022-09-03T08:33:57;98923.06;;;25.93;69.07
37848;BME280;23688;33.130;-117.188;2022-09-03T08:36:29;98928.28;;;25.96;69.09
37848;BME280;23688;33.130;-117.188;2022-09-03T08:38:57;98925.81;;;25.90;69.12
37848;BME280;23688;33.130;-117.188;2022-09-03T08:47:10;98928.69;;;25.82;69.69
37848;BME280;23688;33.130;-117.188;2022-09-03T08:49:50;98935.00;;;25.78;69.60
37848;BME280;23688;33.130;-117.188;2022-09-03T08:55:25;98915.56;;;25.75;69.75
37848;BME280;23688;33.130;-117.188;2022-09-03T08:58:16;98903.31;;;25.71;69.62
37848;BME280;23688;33.130;-117.188;2022-09-03T09:01:56;98911.91;;;25.79;69.76
37848;BME280;23688;33.130;-117.188;2022-09-03T09:11:54;98892.44;;;25.78;69.64
37848;BME280;23688;33.130;-117.188;2022-09-03T09:23:45;98870.47;;;25.72;69.83
37848;BME280;23688;33.130;-117.188;2022-09-03T09:26:14;98878.41;;;25.73;69.79
37848;BME280;23688;33.130;-117.188;2022-09-03T09:28:44;98869.03;;;25.61;69.57
37848;BME280;23688;33.130;-117.188;2022-09-03T09:31:17;98895.28;;;25.72;69.70
37848;BME280;23688;33.130;-117.188;2022-09-03T09:33:43;98905.84;;;25.75;69.60
37848;BME280;23688;33.130;-117.188;2022-09-03T09:36:15;98906.13;;;25.65;69.62
37848;BME280;23688;33.130;-117.188;2022-09-03T09:38:45;98883.75;;;25.42;70.05
37848;BME280;23688;33.130;-117.188;2022-09-03T09:41:19;98895.47;;;25.66;70.17
37848;BME280;23688;33.130;-117.188;2022-09-03T09:43:46;98886.66;;;25.64;70.19
37848;BME280;23688;33.130;-117.188;2022-09-03T09:46:21;98892.13;;;25.59;70.40
37848;BME280;23688;33.130;-117.188;2022-09-03T09:48:57;98895.72;;;25.57;70.10
37848;BME280;23688;33.130;-117.188;2022-09-03T09:51:25;98876.66;;;25.42;70.10
37848;BME280;23688;33.130;-117.188;2022-09-03T09:54:14;98886.41;;;25.42;70.38
37848;BME280;23688;33.130;-117.188;2022-09-03T09:56:57;98893.66;;;25.37;70.67
37848;BME280;23688;33.130;-117.188;2022-09-03T09:59:23;98897.09;;;25.40;70.31
37848;BME280;23688;33.130;-117.188;2022-09-03T10:01:50;98869.03;;;25.30;70.47
37848;BME280;23688;33.130;-117.188;2022-09-03T10:04:29;98875.00;;;25.38;70.28
37848;BME280;23688;33.130;-117.188;2022-09-03T10:07:04;98891.41;;;25.53;69.93
37848;BME280;23688;33.130;-117.188;2022-09-03T10:09:33;98875.69;;;25.45;69.64
37848;BME280;23688;33.130;-117.188;2022-09-03T10:14:41;98894.19;;;25.48;69.35
37848;BME280;23688;33.130;-117.188;2022-09-03T10:22:54;98884.69;;;25.41;69.04
37848;BME280;23688;33.130;-117.188;2022-09-03T10:25:21;98899.53;;;25.48;69.04
37848;BME280;23688;33.130;-117.188;2022-09-03T10:27:51;98896.13;;;25.43;69.30
37848;BME280;23688;33.130;-117.188;2022-09-03T10:30:20;98905.66;;;25.50;69.02
37848;BME280;23688;33.130;-117.188;2022-09-03T10:33:07;98888.09;;;25.46;68.54
37848;BME280;23688;33.130;-117.188;2022-09-03T10:35:43;98888.13;;;25.45;68.66
37848;BME280;23688;33.130;-117.188;2022-09-03T10:41:18;98887.47;;;25.36;68.49
37848;BME280;23688;33.130;-117.188;2022-09-03T10:44:11;98890.00;;;25.41;68.25
37848;BME280;23688;33.130;-117.188;2022-09-03T10:50:11;98871.59;;;25.33;67.68
37848;BME280;23688;33.130;-117.188;2022-09-03T10:56:00;98881.28;;;25.36;68.02
37848;BME280;23688;33.130;-117.188;2022-09-03T11:06:33;98867.22;;;25.32;68.86
37848;BME280;23688;33.130;-117.188;2022-09-03T11:12:43;98881.47;;;25.30;69.14
37848;BME280;23688;33.130;-117.188;2022-09-03T11:17:28;98861.19;;;25.26;69.66
37848;BME280;23688;33.130;-117.188;2022-09-03T11:20:10;98869.88;;;25.32;69.74
37848;BME280;23688;33.130;-117.188;2022-09-03T11:22:40;98860.94;;;25.35;69.59
37848;BME280;23688;33.130;-117.188;2022-09-03T11:25:11;98866.00;;;25.44;69.62
37848;BME280;23688;33.130;-117.188;2022-09-03T11:30:28;98851.16;;;25.37;69.33
37848;BME280;23688;33.130;-117.188;2022-09-03T11:32:59;98867.13;;;25.35;69.50
37848;BME280;23688;33.130;-117.188;2022-09-03T11:37:59;98875.09;;;25.35;69.22
37848;BME280;23688;33.130;-117.188;2022-09-03T11:48:42;98882.19;;;25.35;69.42
37848;BME280;23688;33.130;-117.188;2022-09-03T11:56:40;98890.94;;;25.38;69.09
37848;BME280;23688;33.130;-117.188;2022-09-03T12:01:48;98877.13;;;25.26;69.46
37848;BME280;23688;33.130;-117.188;2022-09-03T12:07:42;98893.19;;;25.21;69.43
37848;BME280;23688;33.130;-117.188;2022-09-03T12:16:16;98886.63;;;25.02;69.81
37848;BME280;23688;33.130;-117.188;2022-09-03T12:18:47;98891.81;;;25.06;69.60
37848;BME280;23688;33.130;-117.188;2022-09-03T12:21:18;98903.13;;;25.14;69.16
37848;BME280;23688;33.130;-117.188;2022-09-03T12:23:50;98904.84;;;25.15;69.53
37848;BME280;23688;33.130;-117.188;2022-09-03T12:26:23;98922.56;;;25.15;69.06
37848;BME280;23688;33.130;-117.188;2022-09-03T12:28:59;98908.88;;;24.97;69.43
37848;BME280;23688;33.130;-117.188;2022-09-03T12:31:30;98913.19;;;25.02;69.73
37848;BME280;23688;33.130;-117.188;2022-09-03T12:34:06;98905.34;;;24.97;69.70
37848;BME280;23688;33.130;-117.188;2022-09-03T12:36:44;98915.81;;;25.03;70.25
37848;BME280;23688;33.130;-117.188;2022-09-03T12:39:21;98909.63;;;25.03;69.97
37848;BME280;23688;33.130;-117.188;2022-09-03T12:42:05;98920.34;;;24.99;70.03
37848;BME280;23688;33.130;-117.188;2022-09-03T12:47:18;98908.28;;;24.86;69.91
37848;BME280;23688;33.130;-117.188;2022-09-03T12:49:48;98930.28;;;24.91;69.63
37848;BME280;23688;33.130;-117.188;2022-09-03T12:52:59;98926.66;;;24.94;69.49
37848;BME280;23688;33.130;-117.188;2022-09-03T12:58:03;98924.69;;;25.02;69.04
37848;BME280;23688;33.130;-117.188;2022-09-03T13:00:35;98934.31;;;25.06;68.79
37848;BME280;23688;33.130;-117.188;2022-09-03T13:03:08;98923.91;;;24.98;68.44
37848;BME280;23688;33.130;-117.188;2022-09-03T13:08:23;98943.31;;;25.01;68.82
37848;BME280;23688;33.130;-117.188;2022-09-03T13:14:13;98947.03;;;24.95;68.94
37848;BME280;23688;33.130;-117.188;2022-09-03T13:30:21;98957.66;;;24.93;70.16
37848;BME280;23688;33.130;-117.188;2022-09-03T13:35:58;98961.16;;;24.95;70.43
37848;BME280;23688;33.130;-117.188;2022-09-03T13:42:04;98964.69;;;24.96;69.90
37848;BME280;23688;33.130;-117.188;2022-09-03T13:44:44;98970.75;;;25.01;70.21
37848;BME280;23688;33.130;-117.188;2022-09-03T13:50:15;98983.19;;;24.99;70.44
37848;BME280;23688;33.130;-117.188;2022-09-03T13:53:03;98981.38;;;25.01;70.76
37848;BME280;23688;33.130;-117.188;2022-09-03T13:55:41;98987.53;;;25.03;71.06
37848;BME280;23688;33.130;-117.188;2022-09-03T14:13:13;99003.91;;;25.20;70.38
37848;BME280;23688;33.130;-117.188;2022-09-03T14:16:02;99010.72;;;25.31;70.26
37848;BME280;23688;33.130;-117.188;2022-09-03T14:18:43;99007.88;;;25.38;69.72
37848;BME280;23688;33.130;-117.188;2022-09-03T14:24:13;99009.19;;;25.56;68.64
37848;BME280;23688;33.130;-117.188;2022-09-03T14:26:54;99010.78;;;25.62;68.54
37848;BME280;23688;33.130;-117.188;2022-09-03T14:29:29;99033.38;;;25.78;67.88
37848;BME280;23688;33.130;-117.188;2022-09-03T14:32:14;99031.41;;;25.87;67.34
37848;BME280;23688;33.130;-117.188;2022-09-03T14:46:02;99042.00;;;26.77;63.83
37848;BME280;23688;33.130;-117.188;2022-09-03T15:02:39;99037.19;;;27.68;60.79
37848;BME280;23688;33.130;-117.188;2022-09-03T15:05:26;99043.13;;;27.77;60.86
37848;BME280;23688;33.130;-117.188;2022-09-03T15:08:01;99025.25;;;27.79;60.01
37848;BME280;23688;33.130;-117.188;2022-09-03T15:24:09;99032.72;;;28.87;55.31
37848;BME280;23688;33.130;-117.188;2022-09-03T15:26:55;99031.81;;;29.10;53.82
37848;BME280;23688;33.130;-117.188;2022-09-03T15:35:04;99025.41;;;29.55;52.13
37848;BME280;23688;33.130;-117.188;2022-09-03T15:37:46;99031.06;;;29.69;51.29
37848;BME280;23688;33.130;-117.188;2022-09-03T15:43:24;99039.97;;;30.09;51.23
37848;BME280;23688;33.130;-117.188;2022-09-03T15:45:55;99034.47;;;30.12;50.01
37848;BME280;23688;33.130;-117.188;2022-09-03T15:51:07;99045.91;;;30.36;48.98
37848;BME280;23688;33.130;-117.188;2022-09-03T15:54:40;99051.38;;;30.52;48.62
37848;BME280;23688;33.130;-117.188;2022-09-03T15:57:06;99054.63;;;30.78;48.31
37848;BME280;23688;33.130;-117.188;2022-09-03T15:59:49;99057.22;;;30.79;48.27
37848;BME280;23688;33.130;-117.188;2022-09-03T16:02:22;99050.91;;;30.99;47.47
37848;BME280;23688;33.130;-117.188;2022-09-03T16:05:04;99047.31;;;31.00;47.10
37848;BME280;23688;33.130;-117.188;2022-09-03T16:07:53;99062.84;;;31.11;47.38
37848;BME280;23688;33.130;-117.188;2022-09-03T16:11:21;99061.91;;;31.12;47.50
37848;BME280;23688;33.130;-117.188;2022-09-03T16:16:30;99081.59;;;31.65;46.67
37848;BME280;23688;33.130;-117.188;2022-09-03T16:19:27;99075.38;;;31.64;45.38
37848;BME280;23688;33.130;-117.188;2022-09-03T16:24:37;99075.16;;;31.69;45.36
37848;BME280;23688;33.130;-117.188;2022-09-03T16:27:27;99053.66;;;31.69;44.73
37848;BME280;23688;33.130;-117.188;2022-09-03T16:30:33;99067.47;;;31.96;45.01
37848;BME280;23688;33.130;-117.188;2022-09-03T16:40:41;99072.47;;;32.53;44.30
37848;BME280;23688;33.130;-117.188;2022-09-03T16:49:20;99082.53;;;32.97;44.22
37848;BME280;23688;33.130;-117.188;2022-09-03T17:17:57;99074.25;;;33.92;39.86
37848;BME280;23688;33.130;-117.188;2022-09-03T17:20:50;99071.84;;;33.87;39.84
37848;BME280;23688;33.130;-117.188;2022-09-03T17:26:20;99065.03;;;33.96;40.23
37848;BME280;23688;33.130;-117.188;2022-09-03T17:28:56;99065.44;;;34.04;39.93
37848;BME280;23688;33.130;-117.188;2022-09-03T17:31:50;99064.69;;;34.17;40.32
37848;BME280;23688;33.130;-117.188;2022-09-03T17:34:54;99074.88;;;34.26;39.74
37848;BME280;23688;33.130;-117.188;2022-09-03T17:40:45;99069.38;;;34.70;39.55
37848;BME280;23688;33.130;-117.188;2022-09-03T17:43:51;99074.41;;;34.89;39.17
37848;BME280;23688;33.130;-117.188;2022-09-03T17:48:59;99072.22;;;35.09;39.68